• Join FlightAware (Why Join?)
  • Login
  • US Flag 
06:28PM EDT


 

Airport Tracker/Info


-or-


 

Live Flight TrackerFlight Track Log ✈ N865JM ✈ 16-Oct-2013 ✈ KHPN - KAGC

Flight Track Log - Related Links

Times and Time Zones

All times are in EDT time to prevent confusion due to time zone crossing. See the N865JM flight status page for this flight to view local times or setup timezone preferences in your user account.

Time Position Orientation Groundspeed Altitude Reporting Facility
EDT Latitude Longitude Course Direction KTS MPH feet Rate Location/Type
07:14AM 41.0333 -73.7167 252° West 195 224 2,300  Level New York TRACON
07:15AM 41.0167 -73.7833 252° West 211 243 4,000 1,980 Climbing New York TRACON
07:16AM 40.9833 -73.8667 242° Southwest 258 297 6,300 1,680 Climbing New York TRACON
07:17AM 40.9500 -73.9333 237° Southwest 263 303 7,400 1,320 Climbing New York TRACON
07:18AM 40.9000 -74.0167 232° Southwest 260 299 9,000 1,980 Climbing New York TRACON
07:19AM 40.8667 -74.1000 242° Southwest 276 318 11,400 2,220 Climbing New York TRACON
07:20AM 40.8667 -74.2167 270° West 296 341 13,500 1,980 Climbing New York TRACON
07:21AM 40.8667 -74.3333 270° West 328 377 15,600 1,020 Climbing New York TRACON
07:24AM 40.8400 -74.6331 263° West 363 418 17,100 720 Climbing New York Center
07:25AM 40.8292 -74.7750 264° West 363 418 18,200 1,380 Climbing New York Center
07:26AM 40.8189 -74.8950 264° West 368 423 19,900 1,800 Climbing New York Center
07:27AM 40.8097 -75.0289 265° West 368 423 21,800 1,500 Climbing New York Center
07:28AM 40.7986 -75.1681 264° West 368 423 23,000 600 Climbing New York Center
07:29AM 40.7767 -75.3008 258° West 368 423 23,000  Level New York Center
07:30AM 40.7444 -75.4331 252° West 373 429 23,000 360 Level New York Center
07:31AM 40.7019 -75.5614 246° West 379 436 23,800 1,380 Climbing New York Center
07:32AM 40.6556 -75.6786 242° Southwest 379 436 25,900 1,920 Climbing New York Center
07:33AM 40.6108 -75.8011 244° Southwest 379 436 27,700 1,020 Climbing New York Center
07:34AM 40.5597 -75.9231 241° Southwest 379 436 28,000 120 Climbing New York Center
07:35AM 40.5100 -76.0558 244° Southwest 390 449 28,000  Level New York Center
07:36AM 40.4603 -76.1883 244° Southwest 402 463 28,000  Level New York Center
07:37AM 40.4083 -76.3178 242° Southwest 402 463 28,000  Level New York Center
07:38AM 40.3658 -76.4672 250° West 402 463 28,000  Level New York Center
07:39AM 40.3297 -76.6086 252° West 407 468 28,000  Level New York Center
07:40AM 40.2936 -76.7469 251° West 407 468 28,000  Level New York Center
07:41AM 40.2572 -76.8853 251° West 407 468 28,000  Level New York Center
07:42AM 40.2208 -77.0261 251° West 407 468 28,000  Level New York Center
07:43AM 40.1822 -77.1642 250° West 407 468 28,000 -120 Level New York Center
07:44AM 40.1525 -77.2864 252° West 402 463 27,800 -900 Descending New York Center
07:45AM 40.1158 -77.4214 250° West 397 457 26,300 -1,500 Descending New York Center
07:47AM 40.0219 -77.7647 250° West 387 445 22,700 -1,260 Descending Cleveland Center
07:48AM 39.9867 -77.8953 251° West 385 443 22,000 -360 Descending Cleveland Center
07:49AM 39.9733 -78.0314 263° West 387 445 22,000 -600 Level Cleveland Center
07:50AM 39.9761 -78.1683 272° West 385 443 20,800 -1,200 Descending Cleveland Center
07:51AM 39.9797 -78.2983 272° West 374 430 19,600 -1,320 Descending Cleveland Center
07:52AM 39.9831 -78.4261 272° West 363 418 18,200 -1,500 Descending Cleveland Center
07:53AM 39.9864 -78.5753 272° West 352 405 16,600 -1,560 Descending Cleveland Center
07:54AM 39.9864 -78.6581 270° West 343 395 15,700 -1,260 Descending Cleveland Center
07:54AM 39.9889 -78.6992 275° West 346 398 15,300 -1,320 Descending Cleveland Center
07:55AM 39.9883 -78.7400 269° West 342 394 14,800 -1,380 Descending Cleveland Center
07:55AM 39.9917 -78.8228 273° West 345 397 13,900 -1,380 Descending Cleveland Center
07:56AM 39.9908 -78.8631 268° West 345 397 13,400 -1,500 Descending Cleveland Center
07:56AM 39.9942 -78.9433 273° West 339 390 12,400 -1,500 Descending Cleveland Center
07:57AM 39.9939 -78.9806 269° West 328 377 11,900 -1,560 Descending Cleveland Center
07:58AM 39.9978 -79.0669 273° West 335 386 10,800 -1,620 Descending Cleveland Center
07:58AM 39.9964 -79.1036 267° West 317 365 10,300 -1,140 Descending Cleveland Center
07:59AM 40.0003 -79.1717 274° West 292 336 9,700 -900 Descending Cleveland Center
07:59AM 39.9986 -79.2022 266° West 257 296 9,400 -1,200 Descending Cleveland Center
08:00AM 40.0019 -79.2653 274° West 261 300 8,500 -1,440 Descending Cleveland Center
08:00AM 39.9992 -79.2950 263° West 254 292 8,000 -1,380 Descending Cleveland Center
08:01AM 40.0031 -79.3611 274° West 264 304 7,100 -1,380 Descending Cleveland Center
08:01AM 40.0017 -79.3881 266° West 261 300 6,600 -960 Descending Cleveland Center
08:02AM 40.0428 -79.4706 303° West 244 281 6,000 -600 Descending Cleveland Center
08:03AM 40.0797 -79.5283 310° West 246 283 5,500 -600 Descending Cleveland Center
08:04AM 40.1425 -79.5644 336° Northwest 249 287 4,900 -300 Descending Cleveland Center
08:05AM 40.2056 -79.6017 336° Northwest 250 288 4,900  Level Cleveland Center
08:06AM 40.2636 -79.6414 332° Northwest 241 277 4,900  Level Cleveland Center
08:07AM 40.3197 -79.6778 334° Northwest 231 266 4,900 -900 Level Cleveland Center
08:08AM 40.3436 -79.7536 292° West 191 220 3,100 -1,080 Descending Cleveland Center
08:09AM 40.3536 -79.8144 282° West 174 200 2,800 -540 Descending Cleveland Center
08:10AM 40.3547 -79.8656 272° West 155 178 2,000 -720 Descending Cleveland Center
08:11AM 40.3558 -79.9097 272° West 136 157 1,400 -420 Descending Cleveland Center
08:12AM 40.3561 -79.9511 271° West 132 152 1,200 -240 Descending Cleveland Center